Latest Coastal Weather Observations for Devonport Airport

IDV60701

Issued at 2:31 am EST Friday 29 July 2016 (issued every 10 minutes, with the page automatically refreshed every 10 minutes)

About coastal observations | Map of coastal stations | Coastal observations for VIC | Marine services | Other Formats
Station Details ID: 091126 Name: DEVONPORT AIRPORT Lat: -41.17 Lon: 146.43 Height: 8.0 m
Data from the previous 72 hours. | See also: Recent months at Devonport Airport
Date/Time
EST
Temp
°C
Wind Pressure Rain since
9am
mm
Weather Cloud Vis
km
Sea
Height
m
Swell
Dir  Spd
kts
Gust
kts
hPa Trend Height
m
Period
s
Dir
29/02:30am 10.5 WNW 15 19 1013.4 - 0.0 - Partly cloudy 10 - - - -
29/02:00am 10.4 NW 16 21 1013.4 - 0.0 - Cloudy 10 - - - -
29/01:30am 10.6 NW 15 20 1013.7 - 0.0 - Partly cloudy 10 - - - -
29/01:00am 10.6 NW 17 21 1013.9 - 0.0 - Partly cloudy 10 - - - -
29/12:34am 10.5 WNW 15 20 1014.2 - 0.0 - Partly cloudy 10 - - - -
29/12:30am 10.5 WNW 16 21 1014.3 - 0.0 - Partly cloudy 10 - - - -
29/12:00am 10.8 WNW 18 23 1014.4 - 0.0 - Cloudy 10 - - - -
 
Date/Time
EST
Temp
°C
Wind Pressure Rain since
9am
mm
Weather Cloud Vis
km
Sea
Height
m
Swell
Dir  Spd
kts
Gust
kts
hPa Trend Height
m
Period
s
Dir
28/11:52pm 10.6 WNW 17 23 1014.5 - 0.0 - Partly cloudy 10 - - - -
28/11:30pm 10.4 WNW 16 20 1014.6 - 0.0 - Partly cloudy 10 - - - -
28/11:00pm 10.0 WNW 16 22 1014.8 - 0.0 - Partly cloudy 10 - - - -
28/10:30pm 10.1 WNW 17 21 1015.0 - 0.0 - Partly cloudy 10 - - - -
28/10:00pm 10.2 WNW 13 16 1015.3 - 0.0 - Partly cloudy 10 - - - -
28/09:30pm 9.4 W 8 11 1015.7 - 0.0 - Partly cloudy 10 - - - -
28/09:00pm 10.0 W 14 18 1015.3 - 0.0 - Mostly clear 10 - - - -
28/08:30pm 10.1 W 13 17 1015.3 - 0.0 - Partly cloudy 10 - - - -
28/08:00pm 10.5 W 16 22 1015.5 - 0.0 - Partly cloudy 10 - - - -
28/07:30pm 10.6 WNW 17 21 1015.2 - 0.0 - Partly cloudy 10 - - - -
28/07:00pm 10.9 WNW 17 23 1015.1 - 0.0 - Partly cloudy 10 - - - -
28/06:30pm 11.0 WNW 18 24 1014.8 - 0.0 - Partly cloudy 10 - - - -
28/06:00pm 11.2 WNW 17 23 1014.5 - 0.0 - Cloudy 10 - - - -
28/05:30pm 11.1 W 17 22 1014.0 - 0.0 - Cloudy 10 - - - -
28/05:00pm 11.6 W 14 22 1014.3 - 0.0 - Cloudy 10 - - - -
28/04:30pm 11.9 W 22 33 1014.1 - 0.0 - Partly cloudy 10 - - - -
28/04:27pm 12.1 W 20 33 1014.0 - 0.0 - Partly cloudy 10 - - - -
28/04:00pm 12.4 WNW 15 20 1013.4 - 0.0 - Partly cloudy 10 - - - -
28/03:30pm 13.2 WNW 18 24 1012.9 - 0.0 - Partly cloudy 10 - - - -
28/03:00pm 13.7 W 20 27 1012.4 - 0.0 - Mostly clear 10 - - - -
28/02:30pm 13.9 W 23 28 1012.1 - 0.0 - Partly cloudy 10 - - - -
28/02:00pm 14.0 W 23 29 1011.8 - 0.0 - Partly cloudy 10 - - - -
28/01:30pm 13.4 W 25 35 1012.1 - 0.0 - Partly cloudy 10 - - - -
28/01:23pm 13.6 W 22 35 1012.1 - 0.0 - Partly cloudy 10 - - - -
28/01:00pm 13.9 W 24 31 1012.0 - 0.0 - Partly cloudy 10 - - - -
28/12:30pm 13.3 W 25 33 1012.4 - 0.0 - Partly cloudy 10 - - - -
28/12:00pm 13.5 W 22 30 1012.8 - 0.0 - Cloudy 10 - - - -
28/11:30am 13.5 W 19 24 1013.0 - 0.0 - Partly cloudy 10 - - - -
28/11:00am 13.0 WNW 20 27 1013.3 - 0.0 - Partly cloudy 10 - - - -
28/10:30am 12.5 WNW 18 23 1013.0 - 0.0 - Partly cloudy 10 - - - -
28/10:00am 12.8 WNW 18 25 1012.8 - 0.0 - Partly cloudy 10 - - - -
28/09:30am 12.4 WNW 17 22 1012.7 - 0.0 - Partly cloudy 10 - - - -
28/09:00am 12.0 WNW 18 23 1012.4 - 0.0 - - 10 - - - -
28/08:30am 11.5 WNW 17 24 1012.3 - 0.0 - Partly cloudy 10 - - - -
28/08:00am 11.2 WNW 17 23 1012.0 - 0.0 - - 10 - - - -
28/07:30am 10.9 W 19 24 1011.6 - 0.0 - - 10 - - - -
28/07:00am 11.2 WNW 21 26 1011.5 - 0.0 - Partly cloudy 10 - - - -
28/06:30am 11.3 WNW 20 26 1011.3 - 0.0 - - 10 - - - -
28/06:00am 11.2 WNW 20 25 1011.2 - 0.0 - Mostly clear 10 - - - -
28/05:30am 11.1 WNW 19 23 1011.2 - 0.0 - Partly cloudy 10 - - - -
28/05:00am 10.9 WNW 18 23 1011.2 - 0.0 - Partly cloudy 10 - - - -
28/04:30am 10.6 WNW 17 22 1011.5 - 0.0 - Partly cloudy 10 - - - -
28/04:00am 10.2 WNW 15 20 1011.8 - 0.0 - - 10 - - - -
28/03:30am 9.9 WNW 15 18 1011.7 - 0.0 - - 10 - - - -
28/03:00am 9.9 WNW 15 18 1012.3 - 0.0 - - 10 - - - -
28/02:30am 9.7 W 15 19 1011.9 - 0.0 - - 10 - - - -
28/02:00am 9.8 W 15 20 1012.1 - 0.0 - - 10 - - - -
28/01:30am 9.5 W 9 13 1012.1 - 0.0 - - 10 - - - -
28/01:00am 9.1 W 7 11 1012.2 - 0.0 - - 10 - - - -
28/12:30am 8.9 W 8 10 1012.2 - 0.0 - - 10 - - - -
28/12:00am 9.4 W 12 15 1012.2 - 0.0 - - 10 - - - -
 
Date/Time
EST
Temp
°C
Wind Pressure Rain since
9am
mm
Weather Cloud Vis
km
Sea
Height
m
Swell
Dir  Spd
kts
Gust
kts
hPa Trend Height
m
Period
s
Dir
27/11:30pm 10.5 W 16 20 1011.9 - 0.0 - - 10 - - - -
27/11:00pm 10.4 W 13 15 1011.8 - 0.0 - - 10 - - - -
27/10:30pm 10.6 WNW 14 17 1011.5 - 0.0 - - 10 - - - -
27/10:00pm 10.9 WNW 17 22 1011.1 - 0.0 - - 10 - - - -
27/09:30pm 10.9 W 15 19 1011.0 - 0.0 - Partly cloudy 10 - - - -
27/09:00pm 10.5 WNW 17 22 1010.7 - 0.0 - Partly cloudy 10 - - - -
27/08:30pm 10.2 WNW 21 28 1009.9 - 0.0 - - 10 - - - -
27/08:00pm 9.7 WNW 23 29 1009.5 - 0.0 - - 10 - - - -
27/07:30pm 9.6 WNW 22 28 1009.4 - 0.0 - - 10 - - - -
27/07:00pm 9.5 WNW 24 30 1009.2 - 0.0 - - 10 - - - -
27/06:30pm 9.6 WNW 23 29 1008.9 - 0.0 - - 10 - - - -
27/06:00pm 9.5 WNW 22 26 1009.1 - 0.0 - - 10 - - - -
27/05:30pm 9.3 WNW 24 30 1008.6 - 0.0 - Partly cloudy 10 - - - -
27/05:00pm 9.3 WNW 23 29 1008.1 - 0.0 - Partly cloudy 10 - - - -
27/04:30pm 9.4 WNW 19 26 1008.5 - 0.0 - Partly cloudy 10 - - - -
27/04:00pm 9.7 W 16 22 1008.9 - 0.0 - Partly cloudy 10 - - - -
27/03:30pm 9.6 W 20 27 1008.8 - 0.0 - Partly cloudy 10 - - - -
27/03:05pm 10.2 W 17 27 1008.6 - 0.0 - Partly cloudy 10 - - - -
27/03:00pm 10.1 W 18 27 1008.6 - 0.0 Drizzle Mostly cloudy 10 - - - -
27/02:34pm 9.4 W 17 28 1008.7 - 0.0 - Partly cloudy 10 - - - -
27/02:30pm 10.0 W 16 20 1008.7 - 0.0 - Partly cloudy 10 - - - -
27/02:00pm 10.0 W 17 24 1008.3 - 0.0 - Partly cloudy 10 - - - -
27/01:57pm 9.9 W 18 24 1008.4 - 0.0 - Partly cloudy 10 - - - -
27/01:30pm 9.7 WSW 11 17 1008.4 - 0.0 - Partly cloudy 10 - - - -
27/01:00pm 10.2 WNW 14 18 1008.3 - 0.0 - Partly cloudy 10 - - - -
27/12:30pm 9.9 W 16 22 1008.5 - 0.0 - Partly cloudy 10 - - - -
27/12:00pm 9.6 W 17 21 1008.6 - 0.0 - Partly cloudy 10 - - - -
27/11:30am 9.6 W 15 21 1008.5 - 0.0 - Partly cloudy 10 - - - -
27/11:00am 9.2 W 16 21 1008.3 - 0.0 - - 10 - - - -
27/10:30am 9.2 W 10 12 1007.9 - 0.0 - Partly cloudy 10 - - - -
27/10:00am 8.5 WNW 10 12 1007.4 - 0.0 - - 10 - - - -
27/09:30am 8.2 WSW 9 12 1007.1 - 0.0 - - 10 - - - -
27/09:00am 7.6 W 13 16 1006.7 - 19.2 - - 10 - - - -
27/08:30am 7.0 WNW 11 15 1005.9 - 19.2 - - 10 - - - -
27/08:00am 4.5 SW 5 6 1005.1 - 19.2 - Partly cloudy 10 - - - -
27/07:30am 4.3 WSW 3 5 1004.5 - 19.2 - Partly cloudy 10 - - - -
27/07:00am 5.8 WNW 6 8 1003.2 - 19.2 - Partly cloudy 10 - - - -
27/06:30am 6.0 W 9 14 1002.7 - 19.0 - - 10 - - - -
27/06:00am 6.5 WSW 13 16 1001.6 - 19.0 - - 10 - - - -
27/05:30am 6.5 W 11 15 1000.6 - 19.0 - - 10 - - - -
27/05:00am 7.7 W 12 17 999.7 - 19.0 - - 7 - - - -
27/04:45am 8.4 W 14 18 999.2 - 19.0 - - 9 - - - -
27/04:30am 8.4 W 12 17 999.0 - 19.0 - - 6 - - - -
27/04:26am 8.2 W 11 14 998.9 - 19.0 - - 6 - - - -
27/04:00am 9.0 WNW 17 21 998.8 - 19.0 - Partly cloudy 10 - - - -
27/03:30am 9.2 WNW 19 25 998.4 - 19.0 - Partly cloudy 10 - - - -
27/03:00am 9.2 NW 17 23 998.4 - 19.0 Rain Mostly cloudy 10 - - - -
27/02:38am 9.1 NW 16 21 998.5 - 19.0 - Partly cloudy 10 - - - -
27/02:30am 8.9 WNW 14 18 998.6 - 19.0 - Partly cloudy 10 - - - -
27/02:00am 8.5 W 15 18 998.7 - 19.0 - Partly cloudy 7 - - - -
27/01:47am 8.7 WNW 18 25 998.9 - 19.0 - Partly cloudy 8 - - - -
27/01:30am 8.8 WNW 22 29 998.9 - 18.8 - Partly cloudy 10 - - - -
27/01:21am 8.7 WNW 22 28 999.0 - 18.6 - Partly cloudy 10 - - - -
27/01:04am 8.2 WNW 19 31 999.2 - 18.6 - Partly cloudy 4 - - - -
27/01:00am 8.0 WNW 18 25 999.1 - 18.2 - Partly cloudy 4 - - - -
27/12:51am 7.6 WNW 16 21 999.5 - 16.8 - Partly cloudy 6 - - - -
27/12:30am 6.7 W 9 13 999.8 - 15.2 - Partly cloudy 8 - - - -
27/12:09am 6.8 WSW 7 11 1000.1 - 13.2 - Partly cloudy 7 - - - -
27/12:00am 6.8 WSW 7 11 1000.3 - 12.8 Rain Mostly cloudy 7 - - - -
 
Date/Time
EST
Temp
°C
Wind Pressure Rain since
9am
mm
Weather Cloud Vis
km
Sea
Height
m
Swell
Dir  Spd
kts
Gust
kts
hPa Trend Height
m
Period
s
Dir
26/11:51pm 7.0 WSW 9 11 1000.2 - 12.0 - Partly cloudy 6 - - - -
26/11:47pm 6.9 WSW 7 10 1000.3 - 11.4 - Partly cloudy 8 - - - -
26/11:30pm 6.9 W 8 11 1000.4 - 10.0 - Partly cloudy 6 - - - -
26/11:24pm 6.9 W 8 11 1000.5 - 9.2 - Partly cloudy 6 - - - -
26/11:00pm 7.1 W 10 13 1000.9 - 7.2 - Partly cloudy 10 - - - -
26/10:30pm 7.6 WNW 14 19 1001.0 - 6.8 - Partly cloudy 10 - - - -
26/10:03pm 7.4 W 12 16 1001.4 - 6.6 - Partly cloudy 10 - - - -
26/10:00pm 7.4 W 12 15 1001.4 - 6.4 - Partly cloudy 10 - - - -
26/09:45pm 7.0 W 8 11 1001.7 - 5.8 - Partly cloudy 8 - - - -
26/09:30pm 6.6 WSW 7 10 1001.6 - 5.4 - Partly cloudy 9 - - - -
26/09:25pm 6.6 WSW 7 9 1001.7 - 5.0 - Partly cloudy 10 - - - -
26/09:12pm 6.6 WSW 6 9 1001.6 - 4.6 - Partly cloudy 8 - - - -
26/09:00pm 6.9 W 7 9 1001.8 - 4.2 Showers Cloudy 6 - - - -
26/08:41pm 7.0 WNW 8 11 1002.1 - 4.0 - Partly cloudy 6 - - - -
26/08:36pm 7.0 WNW 9 11 1002.1 - 3.8 - Partly cloudy 6 - - - -
26/08:30pm 7.1 WNW 9 12 1002.2 - 3.4 - Partly cloudy 8 - - - -
26/08:00pm 7.0 W 13 17 1002.4 - 2.8 - Partly cloudy 10 - - - -
26/07:30pm 6.9 W 13 18 1002.6 - 2.8 - Partly cloudy 9 - - - -
26/07:00pm 6.9 W 11 16 1002.8 - 2.6 - Partly cloudy 10 - - - -
26/06:30pm 6.8 W 11 16 1002.9 - 2.4 - Partly cloudy 10 - - - -
26/06:00pm 7.0 W 11 16 1002.5 - 2.0 Showers Cloudy 10 - - - -
26/05:41pm 7.1 W 15 27 1002.6 - 1.2 - Partly cloudy 10 - - - -
26/05:30pm 7.7 W 11 15 1002.5 - 1.2 - Partly cloudy 10 - - - -
26/05:00pm 7.5 W 11 17 1002.7 - 0.8 - Partly cloudy 10 - - - -
26/04:30pm 9.2 WNW 20 26 1002.5 - 0.6 - Partly cloudy 10 - - - -
26/04:02pm 8.8 WNW 22 32 1002.7 - 0.6 - Partly cloudy 10 - - - -
26/04:00pm 8.8 WNW 23 32 1002.7 - 0.6 - Partly cloudy 10 - - - -
26/03:30pm 8.8 WNW 25 31 1002.9 - 0.6 - Partly cloudy 10 - - - -
26/03:00pm 8.8 WNW 23 28 1003.1 - 0.6 Drizzle Partly cloudy 10 - - - -
26/02:45pm 8.9 WNW 17 27 1003.3 - 0.6 - Partly cloudy 10 - - - -
26/02:30pm 8.8 W 19 33 1003.5 - 0.6 - Partly cloudy 10 - - - -
26/02:01pm 9.7 WNW 18 29 1003.7 - 0.6 - Partly cloudy 10 - - - -
26/02:00pm 9.7 WNW 17 26 1003.7 - 0.6 - Partly cloudy 10 - - - -
26/01:30pm 9.3 W 13 16 1003.8 - 0.6 - Partly cloudy 10 - - - -
26/01:00pm 8.1 WNW 25 34 1003.8 - 0.6 - Partly cloudy 10 - - - -
26/12:56pm 7.4 WNW 27 38 1004.1 - 0.6 - Partly cloudy 10 - - - -
26/12:50pm 7.9 WNW 19 38 1003.9 - 0.6 - Partly cloudy 10 - - - -
26/12:48pm 8.5 WNW 15 34 1003.9 - 0.6 - Partly cloudy 10 - - - -
26/12:30pm 8.4 W 12 15 1004.1 - 0.6 - Partly cloudy 10 - - - -
26/12:29pm 8.4 W 12 15 1004.1 - 0.6 - Partly cloudy 10 - - - -
26/12:10pm 7.1 WNW 21 33 1004.5 - 0.4 - Partly cloudy 6 - - - -
26/12:07pm 7.9 WNW 19 33 1004.3 - 0.0 - Partly cloudy 10 - - - -
26/12:00pm 9.3 WNW 20 25 1004.1 - 0.0 - Cloudy 10 - - - -
26/11:30am 9.6 WNW 19 24 1004.2 - 0.0 - - 10 - - - -
26/11:00am 8.6 WNW 21 26 1004.1 - 0.0 - Partly cloudy 10 - - - -
26/10:30am 8.4 WNW 16 21 1003.9 - 0.0 - - 10 - - - -
26/10:00am 7.8 WNW 17 22 1003.4 - 0.0 - - 10 - - - -
26/09:30am 7.4 WNW 17 21 1003.3 - 0.0 - - 10 - - - -
26/09:00am 6.8 WNW 16 21 1003.3 - 6.6 - - 10 - - - -
26/08:30am 5.9 W 16 19 1002.9 - 6.6 - - 10 - - - -
26/08:00am 6.4 WNW 19 24 1002.5 - 6.6 - - 10 - - - -
26/07:30am 5.4 W 14 18 1002.0 - 6.6 - - 10 - - - -
26/07:00am 5.7 W 16 21 1001.7 - 6.6 - Partly cloudy 10 - - - -
26/06:30am 5.5 W 17 23 1000.7 - 6.6 - - 10 - - - -
26/06:00am 5.4 W 14 17 1000.5 - 6.6 Showers Mostly cloudy 10 - - - -
26/05:30am 5.0 W 15 25 999.7 - 6.4 - Partly cloudy 10 - - - -
26/05:03am 4.8 WSW 18 32 999.6 - 6.4 - Partly cloudy 10 - - - -
26/05:00am 5.0 WSW 16 32 999.6 - 6.4 - Partly cloudy 10 - - - -
26/04:59am 5.1 WSW 15 32 999.6 - 6.4 - Partly cloudy 10 - - - -
26/04:30am 5.2 W 12 17 998.6 - 6.4 - - 10 - - - -
26/04:00am 5.3 W 18 25 998.3 - 6.4 - Partly cloudy 10 - - - -
26/03:45am 5.8 W 18 32 998.2 - 6.0 - Partly cloudy 9 - - - -
26/03:30am 6.4 W 19 25 997.8 - 5.6 - Partly cloudy 10 - - - -
26/03:00am 7.4 WNW 23 28 997.3 - 5.6 Rain Partly cloudy 10 - - - -

Other Formats:

Comma delimited format used in spreadsheet applications
http://www.bom.gov.au/fwo/IDV60701/IDV60701.95960.axf

JavaScript Object Notation format (JSON) in row-major order
http://www.bom.gov.au/fwo/IDV60701/IDV60701.95960.json